Time;durP1;ratioP1;P1;durP2;ratioP2;P2;SDS_P1;SDS_P2;PMS_P1;PMS_P2;Temp;Humidity;BMP_temperature;BMP_pressure;BME280_temperature;BME280_humidity;BME280_pressure;Samples;Min_cycle;Max_cycle;Signal;HPM_P1;HPM_P2
2022/03/25 00:00:11;;;;;;;;;;;;;;;6.86;100.00;100518.22;5097524;28;20350;-81
2022/03/25 00:02:40;;;;;;;;;;;;;;;6.86;100.00;100525.78;5096951;28;20384;-81
2022/03/25 00:05:07;;;;;;;;;;;;;;;6.80;100.00;100518.91;5096412;28;19928;-81
2022/03/25 00:07:35;;;;;;;;;;;;;;;6.79;100.00;100517.28;5095950;28;20006;-81
2022/03/25 00:10:03;;;;;;;;;;;;;;;6.79;100.00;100525.59;5096225;28;19928;-81
2022/03/25 00:12:31;;;;;;;;;;;;;;;6.72;100.00;100522.69;5079638;28;19946;-80
2022/03/25 00:14:58;;;;;;;;;;;;;;;6.70;100.00;100527.78;5096456;28;20452;-81
2022/03/25 00:17:25;;;;;;;;;;;;;;;6.71;100.00;100526.63;5062461;28;20064;-81
2022/03/25 00:19:54;;;;;;;;;;;;;;;6.74;100.00;100537.03;5079162;28;19977;-81
2022/03/25 00:22:21;;;;;;;;;;;;;;;6.67;100.00;100531.28;5078686;28;19988;-81
2022/03/25 00:24:48;;;;;;;;;;;;;;;6.65;100.00;100536.44;5079234;28;19928;-80
2022/03/25 00:27:17;;;;;;;;;;;;;;;6.47;100.00;100532.41;5079055;28;19967;-81
2022/03/25 00:29:45;;;;;;;;;;;;;;;6.26;100.00;100526.34;5079132;28;19924;-81
2022/03/25 00:32:12;;;;;;;;;;;;;;;6.43;100.00;100534.31;5095529;28;19928;-81
2022/03/25 00:34:40;;;;;;;;;;;;;;;6.47;100.00;100532.41;5095759;28;20495;-81
2022/03/25 00:37:07;;;;;;;;;;;;;;;6.38;100.00;100532.59;5078677;28;20446;-81
2022/03/25 00:39:35;;;;;;;;;;;;;;;6.18;100.00;100521.81;5096966;28;20267;-80
2022/03/25 00:42:03;;;;;;;;;;;;;;;6.30;100.00;100535.59;5095642;28;20364;-81
2022/03/25 00:44:31;;;;;;;;;;;;;;;6.31;100.00;100531.63;5078757;28;19924;-81
2022/03/25 00:46:58;;;;;;;;;;;;;;;6.28;100.00;100527.63;5078953;28;20371;-81
2022/03/25 00:49:26;;;;;;;;;;;;;;;5.97;100.00;100527.63;5095251;28;19924;-81
2022/03/25 00:51:54;;;;;;;;;;;;;;;6.07;100.00;100534.59;5061327;28;20416;-80
2022/03/25 00:54:21;;;;;;;;;;;;;;;6.10;100.00;100536.66;5095358;28;19956;-81
2022/03/25 00:56:49;;;;;;;;;;;;;;;6.10;100.00;100533.88;5095730;28;19925;-81
2022/03/25 00:59:18;;;;;;;;;;;;;;;6.17;100.00;100532.09;5095003;28;20278;-81
2022/03/25 01:01:47;;;;;;;;;;;;;;;6.17;100.00;100532.09;5079146;28;19924;-81
2022/03/25 01:04:14;;;;;;;;;;;;;;;6.09;100.00;100533.06;5094964;28;19924;-81
2022/03/25 01:06:43;;;;;;;;;;;;;;;6.17;100.00;100525.72;5070726;28;19925;-81
2022/03/25 01:09:12;;;;;;;;;;;;;;;5.98;100.00;100533.97;5042095;28;19925;-81
2022/03/25 01:11:43;;;;;;;;;;;;;;;6.06;100.00;100527.47;5058457;28;20283;-81
2022/03/25 01:14:11;;;;;;;;;;;;;;;6.07;100.00;100526.28;5058477;28;19925;-81
2022/03/25 01:16:39;;;;;;;;;;;;;;;5.99;100.00;100532.81;5041566;28;19924;-81
2022/03/25 01:19:06;;;;;;;;;;;;;;;5.88;100.00;100528.97;5057976;28;19924;-81
2022/03/25 01:21:33;;;;;;;;;;;;;;;5.92;100.00;100527.09;5057897;28;20019;-81
2022/03/25 01:24:00;;;;;;;;;;;;;;;5.81;100.00;100523.19;5057775;28;19931;-81
2022/03/25 01:26:27;;;;;;;;;;;;;;;5.49;100.00;100522.34;5091259;28;19967;-81
2022/03/25 01:28:54;;;;;;;;;;;;;;;5.32;100.00;100526.25;5093590;28;19979;-81
2022/03/25 01:31:22;;;;;;;;;;;;;;;5.27;100.00;100528.47;5077306;28;19924;-82
2022/03/25 01:33:49;;;;;;;;;;;;;;;5.50;100.00;100527.53;5076992;28;19970;-82
2022/03/25 01:36:19;;;;;;;;;;;;;;;5.68;100.00;100521.66;5060369;28;19946;-82
2022/03/25 01:38:46;;;;;;;;;;;;;;;5.82;100.00;100524.81;5093948;28;19924;-82
2022/03/25 01:41:19;;;;;;;;;;;;;;;5.87;100.00;100516.25;5061144;28;19935;-82
2022/03/25 01:43:52;;;;;;;;;;;;;;;5.84;100.00;100514.19;5094540;28;19931;-82
2022/03/25 01:46:19;;;;;;;;;;;;;;;5.76;100.00;100515.13;5077749;28;19924;-81
2022/03/25 01:48:46;;;;;;;;;;;;;;;5.81;100.00;100512.09;5094243;28;19931;-82
2022/03/25 01:51:14;;;;;;;;;;;;;;;5.68;100.00;100508.59;5095875;28;20451;-82
2022/03/25 01:53:42;;;;;;;;;;;;;;;5.82;100.00;100499.84;5077607;28;20006;-82
2022/03/25 01:56:09;;;;;;;;;;;;;;;5.84;100.00;100505.88;5077979;28;19975;-82
2022/03/25 01:58:39;;;;;;;;;;;;;;;5.76;100.00;100501.25;5061121;28;19943;-82
2022/03/25 02:01:06;;;;;;;;;;;;;;;5.65;100.00;100500.19;5094364;28;19928;-82
2022/03/25 02:03:34;;;;;;;;;;;;;;;5.16;100.00;100503.25;5094837;28;19928;-78
2022/03/25 02:06:03;;;;;;;;;;;;;;;5.16;100.00;100508.78;5093815;28;19948;-83
2022/03/25 02:08:30;;;;;;;;;;;;;;;5.29;100.00;100507.56;5077115;28;19924;-83
2022/03/25 02:10:58;;;;;;;;;;;;;;;5.48;100.00;100509.66;5060577;28;19924;-83
2022/03/25 02:13:27;;;;;;;;;;;;;;;5.51;100.00;100504.19;5077062;28;19928;-83
2022/03/25 02:15:59;;;;;;;;;;;;;;;5.50;100.00;100499.81;5077870;28;19963;-83
2022/03/25 02:18:28;;;;;;;;;;;;;;;5.42;100.00;100500.78;5076121;28;20007;-83
2022/03/25 02:20:55;;;;;;;;;;;;;;;5.51;100.00;100509.72;5060371;28;19924;-83
2022/03/25 02:23:25;;;;;;;;;;;;;;;5.49;100.00;100506.53;5076508;28;19924;-83
2022/03/25 02:25:53;;;;;;;;;;;;;;;5.47;100.00;100503.28;5093397;28;19931;-83
2022/03/25 02:28:21;;;;;;;;;;;;;;;5.45;100.00;100505.59;5076250;28;19924;-82
2022/03/25 02:30:51;;;;;;;;;;;;;;;5.36;100.00;100504.97;5076963;28;19925;-82
2022/03/25 02:33:19;;;;;;;;;;;;;;;5.34;100.00;100504.53;5076014;28;19924;-82
2022/03/25 02:35:47;;;;;;;;;;;;;;;5.31;100.00;100510.78;5076481;28;19950;-82
2022/03/25 02:38:17;;;;;;;;;;;;;;;5.27;100.00;100509.06;5076513;28;19924;-82
2022/03/25 02:40:44;;;;;;;;;;;;;;;5.28;100.00;100505.94;5059909;28;19993;-82
2022/03/25 02:43:12;;;;;;;;;;;;;;;5.27;100.00;100509.88;5059730;28;19931;-82
2022/03/25 02:45:43;;;;;;;;;;;;;;;5.29;100.00;100507.56;5093119;28;19924;-82
2022/03/25 02:48:11;;;;;;;;;;;;;;;5.23;100.00;100510.91;5092954;28;19924;-82
2022/03/25 02:50:39;;;;;;;;;;;;;;;5.24;100.00;100507.78;5076452;28;19925;-82
2022/03/25 02:53:06;;;;;;;;;;;;;;;5.23;100.00;100506.19;5094108;28;19924;-82
2022/03/25 02:55:33;;;;;;;;;;;;;;;5.23;100.00;100506.19;5094952;28;20026;-82
2022/03/25 02:58:01;;;;;;;;;;;;;;;5.22;100.00;100507.38;5093111;28;19931;-82
2022/03/25 03:00:28;;;;;;;;;;;;;;;5.21;100.00;100505.72;5093853;28;19924;-82
2022/03/25 03:03:00;;;;;;;;;;;;;;;5.20;100.00;100504.13;5094388;28;20014;-82
2022/03/25 03:05:27;;;;;;;;;;;;;;;5.22;100.00;100507.38;5076279;28;19935;-82
2022/03/25 03:07:55;;;;;;;;;;;;;;;5.13;100.00;100508.66;5093263;28;19924;-81
2022/03/25 03:10:24;;;;;;;;;;;;;;;5.10;100.00;100515.69;5092698;28;19970;-82
2022/03/25 03:12:52;;;;;;;;;;;;;;;5.05;100.00;100507.66;5092925;28;20260;-82
2022/03/25 03:15:20;;;;;;;;;;;;;;;5.11;100.00;100505.44;5092530;28;19946;-82
2022/03/25 03:17:47;;;;;;;;;;;;;;;5.17;100.00;100504.03;5076563;28;19964;-82
2022/03/25 03:20:15;;;;;;;;;;;;;;;5.02;100.00;100508.38;5092604;28;19931;-82
2022/03/25 03:22:43;;;;;;;;;;;;;;;5.01;100.00;100500.41;5059882;28;19924;-82
2022/03/25 03:25:10;;;;;;;;;;;;;;;4.91;100.00;100510.00;5076014;28;19977;-82
2022/03/25 03:27:37;;;;;;;;;;;;;;;4.91;100.00;100509.19;5076023;28;19934;-82
2022/03/25 03:30:06;;;;;;;;;;;;;;;4.94;100.00;100506.53;5060371;28;19928;-82
2022/03/25 03:32:33;;;;;;;;;;;;;;;4.97;100.00;100505.84;5080144;28;19974;-82
2022/03/25 03:35:01;;;;;;;;;;;;;;;4.93;100.00;100516.03;5096807;28;19924;-82
2022/03/25 03:37:28;;;;;;;;;;;;;;;4.95;100.00;100518.44;5096878;28;20019;-82
2022/03/25 03:39:55;;;;;;;;;;;;;;;4.91;100.00;100518.31;5096387;28;20011;-82
2022/03/25 03:42:22;;;;;;;;;;;;;;;4.84;100.00;100523.66;5097357;28;20379;-82
2022/03/25 03:44:50;;;;;;;;;;;;;;;4.69;100.00;100527.16;5096480;28;19924;-82
2022/03/25 03:47:17;;;;;;;;;;;;;;;4.70;100.00;100528.75;5096422;28;20010;-82
2022/03/25 03:49:44;;;;;;;;;;;;;;;4.81;100.00;100518.00;5079407;28;20018;-82
2022/03/25 03:52:11;;;;;;;;;;;;;;;4.85;100.00;100525.25;5097283;28;19931;-82
2022/03/25 03:54:38;;;;;;;;;;;;;;;4.70;100.00;100525.19;5097018;28;19924;-82
2022/03/25 03:57:08;;;;;;;;;;;;;;;4.66;100.00;100527.03;5097654;28;19990;-82
2022/03/25 03:59:35;;;;;;;;;;;;;;;4.51;100.00;100527.75;5096936;28;19938;-82
2022/03/25 04:02:03;;;;;;;;;;;;;;;4.60;100.00;100529.25;5097197;28;19931;-82
2022/03/25 04:04:30;;;;;;;;;;;;;;;4.69;100.00;100531.88;5096017;28;19931;-82
2022/03/25 04:06:58;;;;;;;;;;;;;;;4.68;100.00;100530.28;5062804;28;19924;-82
2022/03/25 04:09:25;;;;;;;;;;;;;;;4.73;100.00;100527.25;5097021;28;19928;-82
2022/03/25 04:11:53;;;;;;;;;;;;;;;4.73;100.00;100528.06;5095834;28;20367;-82
2022/03/25 04:14:21;;;;;;;;;;;;;;;4.73;100.00;100524.47;5078853;28;19924;-82
2022/03/25 04:16:47;;;;;;;;;;;;;;;4.71;100.00;100522.06;5096135;28;19924;-82
2022/03/25 04:19:15;;;;;;;;;;;;;;;4.79;100.00;100520.31;5096852;28;20015;-82
2022/03/25 04:21:42;;;;;;;;;;;;;;;4.80;100.00;100522.72;5097096;28;19924;-82
2022/03/25 04:24:09;;;;;;;;;;;;;;;4.76;100.00;100518.25;5097140;28;19924;-82
2022/03/25 04:26:37;;;;;;;;;;;;;;;4.80;100.00;100519.97;5096777;28;19934;-82
2022/03/25 04:29:04;;;;;;;;;;;;;;;4.85;100.00;100525.25;5095341;28;19974;-82
2022/03/25 04:31:31;;;;;;;;;;;;;;;4.69;100.00;100527.16;5097526;28;19924;-82
2022/03/25 04:33:58;;;;;;;;;;;;;;;4.37;100.00;100525.34;5078738;28;20628;-82
2022/03/25 04:36:25;;;;;;;;;;;;;;;4.16;100.00;100541.28;5096579;28;19949;-82
2022/03/25 04:38:56;;;;;;;;;;;;;;;4.55;100.00;100521.19;5095179;28;19946;-82
2022/03/25 04:41:23;;;;;;;;;;;;;;;4.53;100.00;100528.22;5061377;28;19931;-82
2022/03/25 04:43:53;;;;;;;;;;;;;;;4.63;100.00;100523.03;5078211;28;20363;-82
2022/03/25 04:46:20;;;;;;;;;;;;;;;4.54;100.00;100530.66;5095255;28;19955;-82
2022/03/25 04:48:48;;;;;;;;;;;;;;;4.61;100.00;100530.88;5078199;28;19973;-84
2022/03/25 04:51:15;;;;;;;;;;;;;;;4.56;100.00;100533.84;5078371;28;19928;-83
2022/03/25 04:53:43;;;;;;;;;;;;;;;4.62;100.00;100538.00;5095408;28;19959;-84
2022/03/25 04:56:10;;;;;;;;;;;;;;;4.58;100.00;100542.63;5045042;28;20022;-84
2022/03/25 04:58:37;;;;;;;;;;;;;;;4.65;100.00;100544.81;5095912;28;20290;-84
2022/03/25 05:01:05;;;;;;;;;;;;;;;4.74;100.00;100546.28;5078122;28;20397;-84
2022/03/25 05:03:33;;;;;;;;;;;;;;;4.65;100.00;100537.31;5095304;28;20003;-83
2022/03/25 05:06:00;;;;;;;;;;;;;;;4.76;100.00;100538.44;5094924;28;19952;-84
2022/03/25 05:08:27;;;;;;;;;;;;;;;4.78;100.00;100538.09;5094716;28;19931;-84
2022/03/25 05:10:55;;;;;;;;;;;;;;;4.76;100.00;100538.44;5094610;28;19924;-83
2022/03/25 05:13:26;;;;;;;;;;;;;;;4.68;100.00;100536.59;5077790;28;19924;-84
2022/03/25 05:15:54;;;;;;;;;;;;;;;4.74;100.00;100542.72;5077765;28;19924;-83
2022/03/25 05:18:22;;;;;;;;;;;;;;;4.67;100.00;100543.31;5077951;28;19925;-84
2022/03/25 05:20:50;;;;;;;;;;;;;;;4.60;100.00;100545.06;5095700;28;19928;-84
2022/03/25 05:23:17;;;;;;;;;;;;;;;4.53;100.00;100533.78;5061624;28;20298;-83
2022/03/25 05:25:44;;;;;;;;;;;;;;;4.47;100.00;100552.56;5061156;28;19931;-84
2022/03/25 05:28:11;;;;;;;;;;;;;;;4.53;100.00;100545.63;5057671;28;19930;-84
2022/03/25 05:30:39;;;;;;;;;;;;;;;4.49;100.00;100546.66;5040683;28;20011;-84
2022/03/25 05:33:06;;;;;;;;;;;;;;;4.53;100.00;100545.63;5073955;28;19980;-84
2022/03/25 05:35:34;;;;;;;;;;;;;;;4.55;100.00;100553.59;5057853;28;19931;-84
2022/03/25 05:38:01;;;;;;;;;;;;;;;4.54;100.00;100552.81;5057493;28;19952;-83
2022/03/25 05:40:28;;;;;;;;;;;;;;;4.41;100.00;100548.41;5041272;28;20038;-84
2022/03/25 05:42:55;;;;;;;;;;;;;;;4.25;100.00;100544.75;5057203;28;20372;-84
2022/03/25 05:45:23;;;;;;;;;;;;;;;4.21;100.00;100543.78;5073876;28;19932;-85
2022/03/25 05:47:50;;;;;;;;;;;;;;;4.29;100.00;100545.66;5057077;28;19924;-84
2022/03/25 05:50:18;;;;;;;;;;;;;;;4.33;100.00;100552.09;5074933;28;19982;-84
2022/03/25 05:52:45;;;;;;;;;;;;;;;4.38;100.00;100553.81;5056852;28;19928;-84
2022/03/25 05:55:13;;;;;;;;;;;;;;;4.39;100.00;100555.47;5056281;28;19930;-84
2022/03/25 05:57:40;;;;;;;;;;;;;;;4.36;100.00;100556.94;5057074;28;19956;-84
2022/03/25 06:00:11;;;;;;;;;;;;;;;4.31;100.00;100559.13;5073799;28;19929;-84
2022/03/25 06:02:42;;;;;;;;;;;;;;;4.30;100.00;100563.84;5073575;28;19981;-84
2022/03/25 06:05:10;;;;;;;;;;;;;;;4.34;100.00;100563.97;5073809;28;19924;-86
2022/03/25 06:07:38;;;;;;;;;;;;;;;4.14;100.00;100565.72;5056925;28;20302;-83
2022/03/25 06:10:06;;;;;;;;;;;;;;;4.00;100.00;100572.75;5057047;28;19932;-83
2022/03/25 06:12:33;;;;;;;;;;;;;;;4.27;100.00;100572.06;5073852;28;19959;-85
2022/03/25 06:15:00;;;;;;;;;;;;;;;4.31;100.00;100576.56;5056783;28;19930;-85
2022/03/25 06:17:27;;;;;;;;;;;;;;;4.28;100.00;100568.94;5056513;28;19924;-81
2022/03/25 06:19:55;;;;;;;;;;;;;;;4.27;100.00;100570.09;5056724;28;19924;-80
2022/03/25 06:22:25;;;;;;;;;;;;;;;4.32;100.00;100575.41;5074008;28;19924;-81
2022/03/25 06:24:52;;;;;;;;;;;;;;;4.37;100.00;100574.34;5088363;28;20271;-81
2022/03/25 06:27:19;;;;;;;;;;;;;;;4.39;100.00;100572.06;5094449;28;19924;-80
2022/03/25 06:29:47;;;;;;;;;;;;;;;4.48;100.00;100576.34;5093440;28;19928;-80
2022/03/25 06:32:14;;;;;;;;;;;;;;;4.53;100.00;100573.31;5093044;28;19924;-80
2022/03/25 06:34:41;;;;;;;;;;;;;;;4.60;100.00;100581.84;5093980;28;20011;-80
2022/03/25 06:37:08;;;;;;;;;;;;;;;4.66;100.00;100583.25;5093724;28;19924;-80
2022/03/25 06:39:35;;;;;;;;;;;;;;;4.68;100.00;100586.44;5092199;28;19947;-81
2022/03/25 06:42:28;;;;;;;;;;;;;;;4.63;100.00;100581.16;5093840;28;19924;-81
2022/03/25 06:44:55;;;;;;;;;;;;;;;4.64;100.00;100579.19;5090132;28;19950;-80
2022/03/25 06:47:22;;;;;;;;;;;;;;;4.51;100.00;100586.72;5093193;28;19924;-81
2022/03/25 06:49:50;;;;;;;;;;;;;;;4.76;100.00;100582.75;5093000;28;19931;-81
2022/03/25 06:52:17;;;;;;;;;;;;;;;4.87;100.00;100583.91;5093601;28;20026;-81
2022/03/25 06:54:45;;;;;;;;;;;;;;;5.18;100.00;100589.56;5093829;28;19924;-81
2022/03/25 06:57:12;;;;;;;;;;;;;;;5.84;100.00;100581.59;5071762;28;19924;-81
2022/03/25 06:59:41;;;;;;;;;;;;;;;6.78;100.00;100579.56;5067500;28;20387;-81
2022/03/25 07:02:09;;;;;;;;;;;;;;;7.53;100.00;100578.03;5091089;28;19987;-81
2022/03/25 07:04:37;;;;;;;;;;;;;;;8.30;100.00;100573.94;5062430;28;19932;-81
2022/03/25 07:07:06;;;;;;;;;;;;;;;8.67;100.00;100571.34;5092295;28;19935;-81
2022/03/25 07:09:33;;;;;;;;;;;;;;;9.01;100.00;100565.47;5076119;28;19924;-79
2022/03/25 07:12:01;;;;;;;;;;;;;;;9.28;100.00;100562.66;5109716;28;20446;-79
2022/03/25 07:14:28;;;;;;;;;;;;;;;9.73;100.00;100560.41;5093949;28;20009;-80
2022/03/25 07:16:55;;;;;;;;;;;;;;;9.92;100.00;100567.81;5092868;28;19931;-80
2022/03/25 07:19:25;;;;;;;;;;;;;;;10.24;100.00;100566.13;5092809;28;20359;-80
2022/03/25 07:21:52;;;;;;;;;;;;;;;10.36;100.00;100568.66;5075476;28;19928;-79
2022/03/25 07:24:21;;;;;;;;;;;;;;;10.23;100.00;100573.72;5092323;28;19931;-80
2022/03/25 07:26:49;;;;;;;;;;;;;;;10.87;100.00;100567.44;5094159;28;19995;-87
2022/03/25 07:29:16;;;;;;;;;;;;;;;10.70;100.00;100579.31;5092380;28;20065;-78
2022/03/25 07:31:44;;;;;;;;;;;;;;;10.89;100.00;100569.84;5092374;28;19930;-77
2022/03/25 07:34:11;;;;;;;;;;;;;;;10.48;100.00;100568.38;5068190;28;19924;-76
2022/03/25 07:36:38;;;;;;;;;;;;;;;11.32;100.00;100574.50;5071758;28;20360;-76
2022/03/25 07:39:05;;;;;;;;;;;;;;;11.43;100.00;100572.56;5073319;28;19924;-76
2022/03/25 07:41:32;;;;;;;;;;;;;;;11.56;100.00;100581.38;5055403;28;20427;-75
2022/03/25 07:44:00;;;;;;;;;;;;;;;11.64;100.00;100583.88;5090656;28;19924;-75
2022/03/25 07:46:28;;;;;;;;;;;;;;;11.74;100.00;100583.09;5087050;28;20401;-75
2022/03/25 07:48:55;;;;;;;;;;;;;;;11.92;100.00;100594.38;5071393;28;19966;-77
2022/03/25 07:51:22;;;;;;;;;;;;;;;12.21;100.00;100591.22;5072955;28;19924;-78
2022/03/25 07:53:49;;;;;;;;;;;;;;;12.69;100.00;100594.47;5054788;28;19931;-76
2022/03/25 07:56:17;;;;;;;;;;;;;;;13.16;100.00;100590.41;5073240;28;19935;-75
2022/03/25 07:58:44;;;;;;;;;;;;;;;13.45;100.00;100591.94;5071957;28;20303;-75
2022/03/25 08:01:11;;;;;;;;;;;;;;;13.81;100.00;100588.56;5077870;28;19935;-76
2022/03/25 08:03:38;;;;;;;;;;;;;;;14.03;100.00;100589.25;5086017;28;20294;-76
2022/03/25 08:06:06;;;;;;;;;;;;;;;14.12;100.00;100586.78;5091941;28;19925;-76
2022/03/25 08:08:34;;;;;;;;;;;;;;;14.06;100.00;100588.41;5081337;28;20276;-75
2022/03/25 08:11:02;;;;;;;;;;;;;;;14.08;100.00;100586.81;5080335;28;19924;-75
2022/03/25 08:13:29;;;;;;;;;;;;;;;14.47;100.00;100595.00;5072476;28;19928;-78
2022/03/25 08:15:56;;;;;;;;;;;;;;;14.96;100.00;100588.97;5072807;28;19931;-76
2022/03/25 08:18:24;;;;;;;;;;;;;;;15.47;100.00;100593.66;5077817;28;20391;-77
2022/03/25 08:20:53;;;;;;;;;;;;;;;15.82;100.00;100594.03;5091085;28;19967;-76
2022/03/25 08:29:04;;;;;;;;;;;;;;;16.74;100.00;100592.69;5077057;28;19924;-78
2022/03/25 08:31:45;;;;;;;;;;;;;;;16.94;100.00;100585.09;5072675;28;20351;-78
2022/03/25 08:34:15;;;;;;;;;;;;;;;16.80;100.00;100585.31;5078305;28;20302;-78
2022/03/25 08:36:43;;;;;;;;;;;;;;;16.86;100.00;100586.41;5093839;28;19949;-78
2022/03/25 08:39:11;;;;;;;;;;;;;;;16.71;100.00;100582.25;5095527;28;19931;-78
2022/03/25 08:41:38;;;;;;;;;;;;;;;16.84;100.00;100584.03;5082074;28;20049;-78
2022/03/25 08:44:06;;;;;;;;;;;;;;;16.82;100.00;100591.34;5096211;28;20291;-78
2022/03/25 08:46:34;;;;;;;;;;;;;;;16.90;100.00;100590.81;5096586;28;20362;-78
2022/03/25 08:49:01;;;;;;;;;;;;;;;17.05;100.00;100594.97;5087395;28;19978;-77
2022/03/25 08:51:29;;;;;;;;;;;;;;;17.04;100.00;100595.41;5089394;28;20345;-77
2022/03/25 08:53:56;;;;;;;;;;;;;;;17.07;100.00;100605.84;5085853;28;19924;-77
2022/03/25 08:56:27;;;;;;;;;;;;;;;17.32;100.00;100594.88;5095724;28;20473;-76
2022/03/25 08:58:58;;;;;;;;;;;;;;;17.53;100.00;100592.47;5094963;28;19931;-77
2022/03/25 09:01:25;;;;;;;;;;;;;;;17.75;100.00;100595.66;5090298;28;19969;-77
2022/03/25 09:03:53;;;;;;;;;;;;;;;17.91;100.00;100609.84;5094333;28;20432;-78
2022/03/25 09:06:20;;;;;;;;;;;;;;;17.92;100.00;100605.78;5096029;28;20363;-78
2022/03/25 09:08:49;;;;;;;;;;;;;;;17.85;100.00;100605.94;5096010;28;20390;-78
2022/03/25 09:11:16;;;;;;;;;;;;;;;17.85;100.00;100600.28;5095612;28;19970;-78
2022/03/25 09:13:43;;;;;;;;;;;;;;;17.67;100.00;100605.50;5095565;28;19924;-77
2022/03/25 09:16:13;;;;;;;;;;;;;;;17.69;100.00;100600.22;5095637;28;20587;-77
2022/03/25 09:18:40;;;;;;;;;;;;;;;17.71;100.00;100606.22;5090235;28;19931;-78
2022/03/25 09:21:08;;;;;;;;;;;;;;;17.63;100.00;100599.91;5074914;28;20014;-77
2022/03/25 09:23:35;;;;;;;;;;;;;;;17.48;100.00;100604.25;5073986;28;19924;-77
2022/03/25 09:26:03;;;;;;;;;;;;;;;17.52;100.00;100615.50;5075150;28;19967;-77
2022/03/25 09:28:30;;;;;;;;;;;;;;;17.52;100.00;100604.19;5057446;28;20066;-76
2022/03/25 09:30:57;;;;;;;;;;;;;;;17.43;100.00;100613.22;5088131;28;19924;-76
2022/03/25 09:33:26;;;;;;;;;;;;;;;17.48;100.00;100609.09;5093780;28;20010;-76
2022/03/25 09:35:53;;;;;;;;;;;;;;;17.42;100.00;100610.81;5093987;28;20390;-77
2022/03/25 09:38:20;;;;;;;;;;;;;;;16.90;100.00;100618.22;5094325;28;19931;-77
2022/03/25 09:40:48;;;;;;;;;;;;;;;16.96;100.00;100616.50;5094092;28;19935;-78
2022/03/25 09:43:18;;;;;;;;;;;;;;;16.78;100.00;100621.66;5094846;28;19964;-77
2022/03/25 09:45:47;;;;;;;;;;;;;;;16.53;100.00;100624.06;5091352;28;19932;-76
2022/03/25 09:48:15;;;;;;;;;;;;;;;16.46;100.00;100621.38;5092802;28;19924;-76
2022/03/25 09:50:42;;;;;;;;;;;;;;;16.66;100.00;100625.09;5093677;28;19924;-76
2022/03/25 09:53:30;;;;;;;;;;;;;;;16.65;100.00;100629.13;5093378;28;19924;-76
2022/03/25 09:55:58;;;;;;;;;;;;;;;16.20;100.00;100631.38;5094791;28;20653;-76
2022/03/25 09:58:28;;;;;;;;;;;;;;;16.44;100.00;100635.91;5094623;28;20014;-76
2022/03/25 10:00:56;;;;;;;;;;;;;;;16.31;100.00;100631.25;5093277;28;19924;-76
2022/03/25 10:03:24;;;;;;;;;;;;;;;16.50;100.00;100637.03;5093476;28;19924;-77
2022/03/25 10:05:56;;;;;;;;;;;;;;;16.22;100.00;100635.38;5094726;28;19970;-76
2022/03/25 10:08:32;;;;;;;;;;;;;;;16.46;100.00;100641.13;5061006;28;20366;-76
2022/03/25 10:11:35;;;;;;;;;;;;;;;16.31;100.00;100648.16;5094095;28;19963;-76
2022/03/25 10:14:14;;;;;;;;;;;;;;;16.53;100.00;100643.81;5034539;28;19960;-76
2022/03/25 10:16:42;;;;;;;;;;;;;;;16.33;100.00;100631.63;5034090;28;19932;-76
2022/03/25 10:19:10;;;;;;;;;;;;;;;16.17;100.00;100633.03;5034620;28;19932;-76
2022/03/25 10:21:54;;;;;;;;;;;;;;;16.70;100.00;100637.09;5067348;28;19932;-76
2022/03/25 10:24:36;;;;;;;;;;;;;;;16.64;100.00;100616.25;5050988;28;19956;-76
2022/03/25 10:27:08;;;;;;;;;;;;;;;16.47;100.00;100603.22;5034359;28;19936;-76
2022/03/25 10:29:35;;;;;;;;;;;;;;;17.23;100.00;100597.47;5034354;28;19932;-76
2022/03/25 10:32:13;;;;;;;;;;;;;;;17.32;100.00;100601.31;5050548;28;20403;-76
2022/03/25 10:34:42;;;;;;;;;;;;;;;17.59;100.00;100592.75;5050752;28;19931;-76
2022/03/25 10:37:11;;;;;;;;;;;;;;;17.94;100.00;100592.00;5050826;28;19931;-76
2022/03/25 10:39:39;;;;;;;;;;;;;;;17.22;100.00;100588.19;5050245;28;20399;-76
2022/03/25 10:42:08;;;;;;;;;;;;;;;17.48;100.00;100592.94;5050693;28;20003;-76
2022/03/25 10:44:42;;;;;;;;;;;;;;;17.64;99.92;100575.28;5050260;28;19932;-76
2022/03/25 10:47:15;;;;;;;;;;;;;;;17.61;100.00;100579.78;5055803;28;19925;-76
2022/03/25 10:49:44;;;;;;;;;;;;;;;17.25;99.48;100586.53;5092090;28;19928;-76
2022/03/25 10:52:20;;;;;;;;;;;;;;;18.01;100.00;100591.84;5092937;28;19935;-76
2022/03/25 10:55:11;;;;;;;;;;;;;;;17.69;97.91;100589.69;5093535;28;20110;-76
2022/03/25 10:58:05;;;;;;;;;;;;;;;17.43;98.27;100578.50;5091721;28;19989;-76
2022/03/25 11:00:32;;;;;;;;;;;;;;;17.72;99.88;100593.69;5091066;28;19931;-76
2022/03/25 11:02:59;;;;;;;;;;;;;;;17.07;97.34;100591.72;5092998;28;19924;-76
2022/03/25 11:05:26;;;;;;;;;;;;;;;17.01;96.81;100588.56;5092984;28;19990;-76
2022/03/25 11:07:54;;;;;;;;;;;;;;;17.53;98.69;100586.00;5091959;28;19967;-76
2022/03/25 11:10:21;;;;;;;;;;;;;;;17.61;99.79;100595.94;5091704;28;20383;-76
2022/03/25 11:12:49;;;;;;;;;;;;;;;18.06;96.75;100599.00;5091688;28;20271;-76
2022/03/25 11:15:18;;;;;;;;;;;;;;;17.40;97.48;100591.47;5091538;28;20448;-76
2022/03/25 11:17:45;;;;;;;;;;;;;;;18.01;97.28;100602.38;5074902;28;19928;-76
2022/03/25 11:20:13;;;;;;;;;;;;;;;18.61;96.27;100599.78;5092887;28;19950;-76
2022/03/25 11:22:43;;;;;;;;;;;;;;;18.18;95.06;100595.50;5091659;28;20023;-76
2022/03/25 11:25:15;;;;;;;;;;;;;;;17.66;95.79;100601.09;5092747;28;19931;-76
2022/03/25 11:27:47;;;;;;;;;;;;;;;17.67;94.61;100595.00;5074873;28;19931;-76
2022/03/25 11:30:16;;;;;;;;;;;;;;;18.30;97.11;100598.44;5092822;28;19967;-76
2022/03/25 11:32:48;;;;;;;;;;;;;;;18.66;98.55;100602.06;5093033;28;19928;-76
2022/03/25 11:35:16;;;;;;;;;;;;;;;18.82;96.07;100596.41;5092664;28;20442;-76
2022/03/25 11:37:43;;;;;;;;;;;;;;;18.40;97.07;100603.13;5091449;28;19924;-77
2022/03/25 11:40:14;;;;;;;;;;;;;;;18.80;96.37;100593.22;5091401;28;19924;-76
2022/03/25 11:42:45;;;;;;;;;;;;;;;18.64;94.41;100589.59;5092415;28;19925;-76
2022/03/25 11:45:25;;;;;;;;;;;;;;;18.89;96.62;100584.88;5092596;28;19963;-76
2022/03/25 11:47:55;;;;;;;;;;;;;;;18.45;95.35;100588.41;5091519;28;19924;-76
2022/03/25 11:50:26;;;;;;;;;;;;;;;17.67;96.64;100591.38;5092389;28;19931;-76
2022/03/25 11:52:54;;;;;;;;;;;;;;;17.93;96.82;100596.06;5093823;28;20326;-76
2022/03/25 11:55:21;;;;;;;;;;;;;;;18.07;96.81;100592.91;5097018;28;19924;-75
2022/03/25 11:57:48;;;;;;;;;;;;;;;17.80;95.13;100592.28;5095986;28;20500;-76
2022/03/25 12:00:26;;;;;;;;;;;;;;;18.74;97.61;100595.00;5096210;28;19924;-76
2022/03/25 12:03:00;;;;;;;;;;;;;;;18.42;95.58;100589.31;5094826;28;19924;-76
2022/03/25 12:05:28;;;;;;;;;;;;;;;18.42;95.09;100583.63;5095199;28;20039;-76
2022/03/25 12:08:14;;;;;;;;;;;;;;;18.68;98.66;100591.09;5095026;28;20378;-76
2022/03/25 12:10:46;;;;;;;;;;;;;;;18.55;94.18;100584.56;5095006;28;19924;-76
2022/03/25 12:13:13;;;;;;;;;;;;;;;18.63;97.18;100588.78;5095821;28;19924;-76
2022/03/25 12:15:41;;;;;;;;;;;;;;;18.29;95.02;100585.56;5096041;28;19924;-76
2022/03/25 12:18:27;;;;;;;;;;;;;;;18.08;95.33;100580.38;5096151;28;19928;-76
2022/03/25 12:21:25;;;;;;;;;;;;;;;17.45;95.72;100582.50;5094911;28;20443;-76
2022/03/25 12:23:55;;;;;;;;;;;;;;;17.60;95.31;100577.38;5095896;28;19970;-76
2022/03/25 12:26:28;;;;;;;;;;;;;;;18.22;96.96;100577.22;5095586;28;19953;-76
2022/03/25 12:28:56;;;;;;;;;;;;;;;18.79;97.88;100568.97;5095883;28;19924;-76
2022/03/25 12:31:24;;;;;;;;;;;;;;;19.36;97.46;100565.44;5095858;28;19955;-76
2022/03/25 12:33:55;;;;;;;;;;;;;;;19.34;95.49;100557.38;5095529;28;19928;-76
2022/03/25 12:36:27;;;;;;;;;;;;;;;18.97;94.84;100560.81;5094509;28;19924;-76
2022/03/25 12:38:55;;;;;;;;;;;;;;;18.97;95.41;100557.97;5095643;28;19932;-76
2022/03/25 12:41:27;;;;;;;;;;;;;;;19.10;99.47;100556.00;5077481;28;19963;-76
2022/03/25 12:44:10;;;;;;;;;;;;;;;19.40;100.00;100569.00;5096018;28;20007;-76
2022/03/25 12:46:37;;;;;;;;;;;;;;;18.99;99.85;100566.81;5077542;28;19928;-76